createdAt,value
2017-07-29T00:01:21.469Z,16.40
2017-07-29T00:03:49.051Z,16.30
2017-07-29T00:06:16.610Z,16.30
2017-07-29T00:08:44.225Z,16.30
2017-07-29T00:11:11.801Z,16.40
2017-07-29T00:13:39.345Z,16.40
2017-07-29T00:16:07.025Z,16.40
2017-07-29T00:18:34.634Z,16.40
2017-07-29T00:21:02.169Z,16.40
2017-07-29T00:23:29.710Z,16.40
2017-07-29T00:25:57.313Z,16.40
2017-07-29T00:28:24.917Z,16.40
2017-07-29T00:30:52.460Z,16.40
2017-07-29T00:33:20.039Z,16.40
2017-07-29T00:35:47.677Z,16.40
2017-07-29T00:38:15.250Z,16.30
2017-07-29T00:40:42.853Z,16.30
2017-07-29T00:43:10.397Z,16.30
2017-07-29T00:45:37.928Z,16.30
2017-07-29T00:48:05.493Z,16.30
2017-07-29T00:50:33.072Z,16.20
2017-07-29T00:53:00.661Z,16.30
2017-07-29T00:55:28.281Z,16.30
2017-07-29T00:57:55.841Z,16.30
2017-07-29T01:00:23.441Z,16.30
2017-07-29T01:02:51.266Z,16.30
2017-07-29T01:05:18.801Z,16.30
2017-07-29T01:07:46.361Z,16.20
2017-07-29T01:10:13.982Z,16.20
2017-07-29T01:12:41.617Z,16.20
2017-07-29T01:15:09.188Z,16.20
2017-07-29T01:17:36.829Z,16.10
2017-07-29T01:20:04.368Z,16.10
2017-07-29T01:22:31.915Z,16.10
2017-07-29T01:24:59.525Z,16.00
2017-07-29T01:27:27.065Z,15.90
2017-07-29T01:29:54.600Z,15.90
2017-07-29T01:32:22.237Z,15.90
2017-07-29T01:34:49.776Z,15.80
2017-07-29T01:37:17.319Z,15.80
2017-07-29T01:39:44.888Z,15.70
2017-07-29T01:42:12.433Z,15.70
2017-07-29T01:44:39.981Z,15.70
2017-07-29T01:47:07.585Z,15.70
2017-07-29T01:49:35.173Z,15.70
2017-07-29T01:52:02.792Z,15.70
2017-07-29T01:54:30.376Z,15.70
2017-07-29T01:56:57.930Z,15.50
2017-07-29T01:59:25.465Z,15.40
2017-07-29T02:01:53.021Z,15.40
2017-07-29T02:04:20.916Z,15.40
2017-07-29T02:06:48.485Z,15.50
2017-07-29T02:09:16.146Z,15.60
2017-07-29T02:11:43.686Z,15.70
2017-07-29T02:14:11.236Z,15.70
2017-07-29T02:16:38.802Z,15.70
2017-07-29T02:19:06.346Z,15.70
2017-07-29T02:21:33.894Z,15.80
2017-07-29T02:24:01.493Z,15.80
2017-07-29T02:26:29.111Z,15.80
2017-07-29T02:28:56.654Z,15.80
2017-07-29T02:31:24.258Z,15.80
2017-07-29T02:33:51.801Z,15.70
2017-07-29T02:36:19.346Z,15.60
2017-07-29T02:38:46.966Z,15.60
2017-07-29T02:41:14.554Z,15.50
2017-07-29T02:43:42.105Z,15.50
2017-07-29T02:46:09.681Z,15.40
2017-07-29T02:48:37.226Z,15.30
2017-07-29T02:51:04.769Z,15.30
2017-07-29T02:53:32.409Z,15.20
2017-07-29T02:55:59.949Z,15.20
2017-07-29T02:58:27.493Z,15.10
2017-07-29T03:00:55.109Z,15.10
2017-07-29T03:03:22.649Z,15.00
2017-07-29T03:05:50.846Z,15.00
2017-07-29T03:08:18.444Z,15.00
2017-07-29T03:10:45.981Z,14.90
2017-07-29T03:13:13.529Z,14.90
2017-07-29T03:15:41.133Z,14.80
2017-07-29T03:18:08.676Z,14.80
2017-07-29T03:20:36.240Z,14.70
2017-07-29T03:23:03.843Z,14.70
2017-07-29T03:25:31.389Z,14.70
2017-07-29T03:27:58.930Z,14.70
2017-07-29T03:30:26.546Z,14.70
2017-07-29T03:32:54.133Z,14.70
2017-07-29T03:35:21.677Z,14.60
2017-07-29T03:37:49.288Z,14.60
2017-07-29T03:40:16.830Z,14.60
2017-07-29T03:42:44.421Z,14.60
2017-07-29T03:45:12.038Z,14.60
2017-07-29T03:47:39.574Z,14.60
2017-07-29T03:50:07.117Z,14.60
2017-07-29T03:52:34.713Z,14.60
2017-07-29T03:55:02.253Z,14.60
2017-07-29T03:57:29.797Z,14.50
2017-07-29T03:59:57.404Z,14.50
2017-07-29T04:02:24.941Z,14.50
2017-07-29T04:04:52.544Z,14.50
2017-07-29T04:07:20.517Z,14.60
2017-07-29T04:09:48.057Z,14.60
2017-07-29T04:12:15.589Z,14.60
2017-07-29T04:14:43.162Z,14.60
2017-07-29T04:17:10.705Z,14.60
2017-07-29T04:19:39.125Z,14.60
2017-07-29T04:22:06.981Z,14.60
2017-07-29T04:24:34.529Z,14.60
2017-07-29T04:27:02.071Z,14.70
2017-07-29T04:29:29.645Z,14.70
2017-07-29T04:31:57.185Z,14.60
2017-07-29T04:34:24.733Z,14.70
2017-07-29T04:36:52.318Z,14.70
2017-07-29T04:39:19.861Z,14.80
2017-07-29T04:41:47.445Z,14.80
2017-07-29T04:44:15.210Z,14.80
2017-07-29T04:46:42.781Z,14.90
2017-07-29T04:49:10.337Z,14.80
2017-07-29T04:51:37.957Z,14.90
2017-07-29T04:54:05.497Z,14.90
2017-07-29T04:56:33.037Z,15.00
2017-07-29T04:59:00.609Z,15.00
2017-07-29T05:01:28.145Z,15.10
2017-07-29T05:03:55.677Z,15.20
2017-07-29T05:06:23.295Z,15.20
2017-07-29T05:08:50.974Z,15.20
2017-07-29T05:11:18.522Z,15.40
2017-07-29T05:13:46.091Z,15.50
2017-07-29T05:16:13.637Z,15.80
2017-07-29T05:18:41.536Z,15.90
2017-07-29T05:21:09.117Z,16.00
2017-07-29T05:23:37.579Z,16.00
2017-07-29T05:26:05.109Z,16.00
2017-07-29T05:28:32.714Z,16.10
2017-07-29T05:31:00.257Z,16.10
2017-07-29T05:33:27.793Z,16.10
2017-07-29T05:35:55.401Z,16.10
2017-07-29T05:38:22.948Z,16.10
2017-07-29T05:40:50.485Z,16.10
2017-07-29T05:43:18.058Z,16.10
2017-07-29T05:45:45.775Z,16.10
2017-07-29T05:48:13.370Z,16.10
2017-07-29T05:50:41.034Z,16.20
2017-07-29T05:53:08.568Z,16.20
2017-07-29T05:55:36.103Z,16.30
2017-07-29T05:58:03.710Z,16.50
2017-07-29T06:00:31.296Z,16.80
2017-07-29T06:02:59.353Z,17.20
2017-07-29T06:05:26.913Z,18.10
2017-07-29T06:07:54.462Z,19.20
2017-07-29T06:10:22.458Z,21.00
2017-07-29T06:12:50.077Z,22.80
2017-07-29T06:15:17.619Z,24.10
2017-07-29T06:17:45.162Z,24.70
2017-07-29T06:20:12.806Z,25.80
2017-07-29T06:22:40.350Z,27.30
2017-07-29T06:25:07.894Z,28.10
2017-07-29T06:27:35.465Z,28.90
2017-07-29T06:30:03.013Z,29.70
2017-07-29T06:32:30.549Z,30.60
2017-07-29T06:34:58.193Z,31.00
2017-07-29T06:37:25.725Z,31.30
2017-07-29T06:39:53.265Z,31.70
2017-07-29T06:42:20.832Z,31.70
2017-07-29T06:44:48.377Z,31.70
2017-07-29T06:47:15.912Z,31.30
2017-07-29T06:49:43.493Z,31.80
2017-07-29T06:52:11.037Z,32.70
2017-07-29T06:54:38.579Z,32.80
2017-07-29T06:57:06.185Z,32.20
2017-07-29T06:59:33.726Z,32.30
2017-07-29T07:02:01.261Z,32.80
2017-07-29T07:04:28.852Z,33.30
2017-07-29T07:06:56.390Z,34.20
2017-07-29T07:09:23.925Z,34.80
2017-07-29T07:11:51.706Z,34.80
2017-07-29T07:14:19.244Z,34.50
2017-07-29T07:16:46.793Z,35.30
2017-07-29T07:19:14.445Z,36.50
2017-07-29T07:21:41.989Z,37.30
2017-07-29T07:24:09.533Z,37.30
2017-07-29T07:26:37.144Z,37.00
2017-07-29T07:29:05.438Z,37.50
2017-07-29T07:31:33.990Z,36.60
2017-07-29T07:34:01.585Z,36.90
2017-07-29T07:36:29.150Z,36.80
2017-07-29T07:39:00.374Z,36.60
2017-07-29T07:41:28.040Z,36.50
2017-07-29T07:43:55.588Z,37.30
2017-07-29T07:46:23.145Z,37.70
2017-07-29T07:48:50.769Z,37.60
2017-07-29T07:51:18.335Z,38.20
2017-07-29T07:53:45.889Z,37.70
2017-07-29T07:56:13.469Z,38.10
2017-07-29T07:58:41.037Z,38.00
2017-07-29T08:01:08.578Z,37.80
2017-07-29T08:03:36.942Z,38.10
2017-07-29T08:06:04.489Z,37.60
2017-07-29T08:08:32.025Z,36.50
2017-07-29T08:11:00.837Z,35.60
2017-07-29T08:13:28.609Z,35.30
2017-07-29T08:15:56.169Z,35.10
2017-07-29T08:18:23.738Z,36.00
2017-07-29T08:20:51.282Z,36.90
2017-07-29T08:23:18.846Z,37.80
2017-07-29T08:25:46.445Z,38.80
2017-07-29T08:28:13.986Z,39.90
2017-07-29T08:30:41.529Z,40.60
2017-07-29T08:33:09.094Z,41.40
2017-07-29T08:35:36.630Z,41.10
2017-07-29T08:38:04.169Z,41.00
2017-07-29T08:40:31.747Z,41.00
2017-07-29T08:42:59.281Z,40.90
2017-07-29T08:45:26.842Z,41.70
2017-07-29T08:47:54.478Z,42.80
2017-07-29T08:50:22.017Z,42.70
2017-07-29T08:52:49.566Z,42.60
2017-07-29T08:55:17.130Z,42.10
2017-07-29T08:57:44.672Z,42.80
2017-07-29T09:00:12.209Z,42.40
2017-07-29T09:02:39.778Z,43.00
2017-07-29T09:05:07.320Z,43.70
2017-07-29T09:07:34.857Z,44.20
2017-07-29T09:10:02.458Z,45.20
2017-07-29T09:12:30.002Z,45.90
2017-07-29T09:14:59.541Z,44.20
2017-07-29T09:17:27.152Z,43.90
2017-07-29T09:19:54.693Z,44.20
2017-07-29T09:22:22.229Z,44.40
2017-07-29T09:24:50.294Z,43.80
2017-07-29T09:27:21.135Z,44.10
2017-07-29T09:29:48.765Z,43.80
2017-07-29T09:32:16.422Z,43.80
2017-07-29T09:37:20.393Z,44.00
2017-07-29T09:39:49.109Z,44.10
2017-07-29T09:42:16.679Z,43.80
2017-07-29T09:44:44.271Z,42.60
2017-07-29T09:47:11.829Z,40.20
2017-07-29T09:49:39.374Z,39.20
2017-07-29T09:52:07.149Z,40.10
2017-07-29T09:54:34.734Z,41.00
2017-07-29T09:57:02.321Z,39.70
2017-07-29T09:59:29.940Z,40.10
2017-07-29T10:01:57.481Z,41.10
2017-07-29T10:04:25.035Z,42.40
2017-07-29T10:06:52.627Z,42.80
2017-07-29T10:09:20.169Z,40.80
2017-07-29T10:11:47.732Z,39.60
2017-07-29T10:14:15.341Z,39.20
2017-07-29T10:16:43.081Z,37.70
2017-07-29T10:19:10.626Z,36.60
2017-07-29T10:21:38.253Z,36.20
2017-07-29T10:24:05.806Z,36.10
2017-07-29T10:26:33.342Z,35.30
2017-07-29T10:29:00.925Z,34.90
2017-07-29T10:31:28.469Z,34.20
2017-07-29T10:33:56.012Z,33.50
2017-07-29T10:36:23.879Z,33.00
2017-07-29T10:38:51.430Z,32.50
2017-07-29T10:41:19.927Z,31.30
2017-07-29T10:43:47.496Z,30.30
2017-07-29T10:46:15.041Z,29.90
2017-07-29T10:48:42.577Z,29.30
2017-07-29T10:51:10.142Z,28.90
2017-07-29T10:53:37.686Z,28.40
2017-07-29T10:56:05.225Z,28.50
2017-07-29T10:58:32.831Z,28.40
2017-07-29T11:01:00.377Z,28.10
2017-07-29T11:03:27.941Z,28.00
2017-07-29T11:05:55.513Z,28.00
2017-07-29T11:08:23.070Z,28.30
2017-07-29T11:10:50.613Z,28.40
2017-07-29T11:13:18.185Z,28.50
2017-07-29T11:15:45.737Z,28.40
2017-07-29T11:18:13.738Z,28.60
2017-07-29T11:20:41.346Z,28.80
2017-07-29T11:23:08.886Z,28.70
2017-07-29T11:25:36.434Z,28.90
2017-07-29T11:28:04.050Z,29.00
2017-07-29T11:30:31.599Z,29.10
2017-07-29T11:32:59.137Z,29.20
2017-07-29T11:35:26.707Z,29.50
2017-07-29T11:37:54.244Z,29.70
2017-07-29T11:40:21.791Z,29.80
2017-07-29T11:42:49.470Z,30.00
2017-07-29T11:45:17.034Z,30.30
2017-07-29T11:47:44.585Z,30.50
2017-07-29T11:50:12.170Z,30.40
2017-07-29T11:52:39.797Z,30.40
2017-07-29T11:55:07.410Z,30.50
2017-07-29T11:57:35.001Z,30.50
2017-07-29T12:00:02.541Z,30.60
2017-07-29T12:02:30.084Z,30.80
2017-07-29T12:04:57.688Z,31.10
2017-07-29T12:07:25.228Z,31.30
2017-07-29T12:09:52.766Z,31.30
2017-07-29T12:12:20.339Z,31.50
2017-07-29T12:14:47.872Z,31.40
2017-07-29T12:17:15.409Z,31.50
2017-07-29T12:19:43.332Z,31.30
2017-07-29T12:22:10.890Z,31.00
2017-07-29T12:24:38.679Z,30.90
2017-07-29T12:27:06.432Z,30.60
2017-07-29T12:29:33.977Z,30.60
2017-07-29T12:32:01.537Z,30.50
2017-07-29T12:34:29.225Z,30.40
2017-07-29T12:36:56.766Z,30.20
2017-07-29T12:39:24.385Z,30.00
2017-07-29T12:41:51.953Z,30.00
2017-07-29T12:44:19.497Z,29.90
2017-07-29T12:46:47.041Z,29.80
2017-07-29T12:49:14.661Z,29.90
2017-07-29T12:51:42.205Z,29.80
2017-07-29T12:54:09.749Z,30.10
2017-07-29T12:56:37.317Z,30.20
2017-07-29T12:59:04.962Z,30.40
2017-07-29T13:01:32.510Z,30.50
2017-07-29T13:04:00.121Z,30.30
2017-07-29T13:06:27.671Z,30.40
2017-07-29T13:08:55.210Z,30.10
2017-07-29T13:11:22.822Z,30.00
2017-07-29T13:13:50.570Z,30.20
2017-07-29T13:16:18.181Z,30.30
2017-07-29T13:18:45.757Z,30.40
2017-07-29T13:21:13.358Z,30.30
2017-07-29T13:23:40.916Z,30.00
2017-07-29T13:26:08.568Z,29.80
2017-07-29T13:28:36.157Z,29.90
2017-07-29T13:31:03.714Z,30.10
2017-07-29T13:33:31.337Z,30.10
2017-07-29T13:35:58.886Z,29.80
2017-07-29T13:38:26.429Z,29.40
2017-07-29T13:40:54.049Z,29.30
2017-07-29T13:43:21.585Z,29.40
2017-07-29T13:45:49.129Z,29.70
2017-07-29T13:48:16.719Z,29.90
2017-07-29T13:50:44.248Z,29.90
2017-07-29T13:53:11.805Z,30.10
2017-07-29T13:55:39.430Z,30.20
2017-07-29T13:58:06.988Z,30.40
2017-07-29T14:00:34.529Z,30.20
2017-07-29T14:03:02.097Z,29.90
2017-07-29T14:05:29.632Z,30.10
2017-07-29T14:07:57.165Z,30.00
2017-07-29T14:10:24.797Z,30.00
2017-07-29T14:12:52.338Z,30.10
2017-07-29T14:15:19.877Z,30.10
2017-07-29T14:17:47.481Z,30.30
2017-07-29T14:20:15.028Z,30.50
2017-07-29T14:22:42.877Z,30.60
2017-07-29T14:25:10.446Z,30.70
2017-07-29T14:27:37.989Z,31.00
2017-07-29T14:30:05.531Z,31.00
2017-07-29T14:32:33.100Z,31.00
2017-07-29T14:35:00.641Z,30.80
2017-07-29T14:37:28.180Z,30.40
2017-07-29T14:39:55.781Z,30.20
2017-07-29T14:42:23.324Z,30.30
2017-07-29T14:44:50.857Z,30.50
2017-07-29T14:47:18.476Z,30.50
2017-07-29T14:49:46.022Z,30.30
2017-07-29T14:52:13.576Z,30.40
2017-07-29T14:54:41.181Z,30.40
2017-07-29T14:57:08.722Z,30.50
2017-07-29T14:59:36.267Z,30.20
2017-07-29T15:02:03.888Z,30.20
2017-07-29T15:04:31.436Z,30.30
2017-07-29T15:06:58.985Z,30.50
2017-07-29T15:09:26.549Z,30.60
2017-07-29T15:11:54.085Z,30.50
2017-07-29T15:14:21.690Z,30.50
2017-07-29T15:16:49.321Z,30.40
2017-07-29T15:19:16.885Z,30.60
2017-07-29T15:21:44.446Z,30.90
2017-07-29T15:24:12.458Z,31.20
2017-07-29T15:26:40.006Z,31.40
2017-07-29T15:29:07.554Z,31.60
2017-07-29T15:31:35.272Z,31.60
2017-07-29T15:34:02.820Z,31.50
2017-07-29T15:36:30.366Z,31.60
2017-07-29T15:38:57.941Z,31.30
2017-07-29T15:41:25.490Z,30.90
2017-07-29T15:43:53.033Z,31.00
2017-07-29T15:46:20.645Z,31.00
2017-07-29T15:48:48.181Z,31.00
2017-07-29T15:51:15.725Z,31.20
2017-07-29T15:53:43.321Z,31.10
2017-07-29T15:56:10.897Z,30.90
2017-07-29T15:58:38.433Z,30.70
2017-07-29T16:01:06.006Z,30.60
2017-07-29T16:03:33.536Z,30.50
2017-07-29T16:06:01.077Z,30.40
2017-07-29T16:08:28.687Z,30.50
2017-07-29T16:10:56.221Z,30.40
2017-07-29T16:13:23.761Z,30.50
2017-07-29T16:15:51.324Z,30.50
2017-07-29T16:18:18.869Z,30.50
2017-07-29T16:20:46.400Z,30.40
2017-07-29T16:23:13.974Z,30.20
2017-07-29T16:25:41.707Z,30.10
2017-07-29T16:28:10.021Z,30.10
2017-07-29T16:30:37.653Z,29.90
2017-07-29T16:33:05.213Z,29.80
2017-07-29T16:35:32.749Z,29.50
2017-07-29T16:38:00.330Z,29.30
2017-07-29T16:40:27.873Z,29.20
2017-07-29T16:42:55.416Z,29.10
2017-07-29T16:45:22.982Z,29.00
2017-07-29T16:47:50.521Z,28.80
2017-07-29T16:50:18.061Z,28.80
2017-07-29T16:52:46.660Z,28.70
2017-07-29T16:55:14.224Z,28.70
2017-07-29T16:57:41.762Z,28.70
2017-07-29T17:00:09.365Z,28.60
2017-07-29T17:02:36.919Z,28.60
2017-07-29T17:05:04.530Z,28.60
2017-07-29T17:07:32.127Z,28.70
2017-07-29T17:09:59.669Z,28.80
2017-07-29T17:12:27.206Z,29.00
2017-07-29T17:14:55.077Z,29.00
2017-07-29T17:17:22.670Z,28.90
2017-07-29T17:19:50.255Z,28.90
2017-07-29T17:22:17.844Z,28.80
2017-07-29T17:24:45.373Z,28.90
2017-07-29T17:27:14.808Z,28.80
2017-07-29T17:29:42.449Z,28.70
2017-07-29T17:32:10.083Z,28.60
2017-07-29T17:34:37.651Z,28.60
2017-07-29T17:37:05.262Z,28.50
2017-07-29T17:39:32.809Z,28.40
2017-07-29T17:42:00.415Z,28.30
2017-07-29T17:44:27.985Z,28.20
2017-07-29T17:46:55.540Z,28.00
2017-07-29T17:49:23.085Z,27.80
2017-07-29T17:51:50.685Z,27.70
2017-07-29T17:54:18.247Z,27.60
2017-07-29T17:56:45.785Z,27.60
2017-07-29T17:59:13.541Z,27.40
2017-07-29T18:01:41.146Z,27.30
2017-07-29T18:04:08.709Z,27.20
2017-07-29T18:06:36.362Z,27.00
2017-07-29T18:09:03.914Z,26.90
2017-07-29T18:11:31.461Z,26.80
2017-07-29T18:13:59.038Z,26.80
2017-07-29T18:16:26.588Z,26.80
2017-07-29T18:18:54.253Z,26.70
2017-07-29T18:21:22.047Z,26.60
2017-07-29T18:23:49.588Z,26.50
2017-07-29T18:26:17.165Z,26.40
2017-07-29T18:28:45.078Z,26.40
2017-07-29T18:31:12.641Z,26.30
2017-07-29T18:33:40.218Z,26.30
2017-07-29T18:36:07.801Z,26.10
2017-07-29T18:38:35.341Z,26.00
2017-07-29T18:41:02.876Z,25.90
2017-07-29T18:43:30.560Z,25.80
2017-07-29T18:45:58.152Z,25.70
2017-07-29T18:48:25.746Z,25.70
2017-07-29T18:50:53.339Z,25.50
2017-07-29T18:53:20.912Z,25.50
2017-07-29T18:55:48.543Z,25.40
2017-07-29T18:58:16.113Z,25.30
2017-07-29T19:00:43.668Z,25.20
2017-07-29T19:03:11.206Z,25.10
2017-07-29T19:05:38.911Z,25.00
2017-07-29T19:08:06.455Z,25.00
2017-07-29T19:10:33.998Z,24.90
2017-07-29T19:13:01.605Z,24.80
2017-07-29T19:15:29.150Z,24.70
2017-07-29T19:17:56.685Z,24.60
2017-07-29T19:20:24.257Z,24.60
2017-07-29T19:22:51.808Z,24.50
2017-07-29T19:25:19.372Z,24.40
2017-07-29T19:27:47.018Z,24.40
2017-07-29T19:30:14.993Z,24.30
2017-07-29T19:32:42.609Z,24.20
2017-07-29T19:35:10.178Z,24.20
2017-07-29T19:37:37.734Z,24.20
2017-07-29T19:40:05.285Z,24.20
2017-07-29T19:42:32.848Z,24.10
2017-07-29T19:45:00.385Z,24.00
2017-07-29T19:47:27.925Z,24.00
2017-07-29T19:49:55.541Z,23.90
2017-07-29T19:52:23.080Z,23.80
2017-07-29T19:54:50.745Z,23.70
2017-07-29T19:57:18.517Z,23.50
2017-07-29T19:59:46.139Z,23.40
2017-07-29T20:02:13.693Z,23.40
2017-07-29T20:04:41.281Z,23.30
2017-07-29T20:07:08.840Z,23.30
2017-07-29T20:09:37.200Z,23.30
2017-07-29T20:12:04.883Z,23.30
2017-07-29T20:14:32.486Z,23.30
2017-07-29T20:17:00.069Z,23.20
2017-07-29T20:19:27.757Z,23.20
2017-07-29T20:21:55.302Z,23.00
2017-07-29T20:24:22.845Z,23.00
2017-07-29T20:26:50.422Z,23.00
2017-07-29T20:29:18.050Z,23.00
2017-07-29T20:31:45.866Z,22.90
2017-07-29T20:34:13.526Z,22.90
2017-07-29T20:36:41.097Z,22.80
2017-07-29T20:39:08.666Z,22.70
2017-07-29T20:41:36.273Z,22.70
2017-07-29T20:44:03.833Z,22.60
2017-07-29T20:46:31.429Z,22.60
2017-07-29T20:48:59.038Z,22.50
2017-07-29T20:51:26.588Z,22.50
2017-07-29T20:53:54.159Z,22.50
2017-07-29T20:56:21.774Z,22.40
2017-07-29T20:58:49.321Z,22.40
2017-07-29T21:01:16.878Z,22.30
2017-07-29T21:03:44.452Z,22.20
2017-07-29T21:06:12.000Z,22.20
2017-07-29T21:08:39.545Z,22.20
2017-07-29T21:11:07.127Z,22.10
2017-07-29T21:13:34.686Z,22.00
2017-07-29T21:16:02.229Z,21.70
2017-07-29T21:18:29.841Z,21.70
2017-07-29T21:20:57.380Z,21.70
2017-07-29T21:23:24.937Z,21.60
2017-07-29T21:25:52.589Z,21.50
2017-07-29T21:28:20.129Z,21.50
2017-07-29T21:30:52.370Z,21.40
2017-07-29T21:33:20.626Z,21.30
2017-07-29T21:35:48.173Z,21.20
2017-07-29T21:38:15.728Z,21.30
2017-07-29T21:40:43.338Z,21.20
2017-07-29T21:43:10.888Z,21.10
2017-07-29T21:45:38.432Z,21.10
2017-07-29T21:48:06.026Z,21.10
2017-07-29T21:50:33.661Z,21.20
2017-07-29T21:53:01.211Z,21.10
2017-07-29T21:55:28.794Z,21.20
2017-07-29T21:57:56.353Z,21.20
2017-07-29T22:00:24.765Z,21.10
2017-07-29T22:02:52.385Z,21.10
2017-07-29T22:05:19.935Z,21.00
2017-07-29T22:07:47.490Z,20.90
2017-07-29T22:10:15.141Z,20.80
2017-07-29T22:12:42.686Z,20.80
2017-07-29T22:15:10.230Z,20.70
2017-07-29T22:17:37.824Z,20.60
2017-07-29T22:20:05.365Z,20.50
2017-07-29T22:22:32.909Z,20.40
2017-07-29T22:25:00.616Z,20.40
2017-07-29T22:27:28.172Z,20.40
2017-07-29T22:29:55.727Z,20.30
2017-07-29T22:32:23.350Z,20.30
2017-07-29T22:34:51.258Z,20.30
2017-07-29T22:37:18.814Z,20.30
2017-07-29T22:39:46.389Z,20.30
2017-07-29T22:42:13.934Z,20.40
2017-07-29T22:44:41.497Z,20.40
2017-07-29T22:47:09.104Z,20.30
2017-07-29T22:49:36.664Z,20.30
2017-07-29T22:52:04.214Z,20.30
2017-07-29T22:54:31.803Z,20.30
2017-07-29T22:56:59.353Z,20.20
2017-07-29T22:59:26.897Z,20.30
2017-07-29T23:01:54.470Z,20.30
2017-07-29T23:04:22.034Z,20.30
2017-07-29T23:06:49.586Z,20.20
2017-07-29T23:09:17.358Z,20.10
2017-07-29T23:11:44.920Z,20.10
2017-07-29T23:14:12.464Z,20.10
2017-07-29T23:16:40.049Z,20.10
2017-07-29T23:19:07.607Z,20.10
2017-07-29T23:21:35.232Z,20.10
2017-07-29T23:24:02.830Z,20.00
2017-07-29T23:26:30.390Z,20.00
2017-07-29T23:28:57.928Z,20.00
2017-07-29T23:31:25.541Z,20.00
2017-07-29T23:33:53.089Z,20.00
2017-07-29T23:36:21.086Z,19.90
2017-07-29T23:38:48.698Z,19.80
2017-07-29T23:41:16.236Z,19.80
2017-07-29T23:43:43.789Z,19.80
2017-07-29T23:46:11.357Z,19.80
2017-07-29T23:48:38.910Z,19.70
2017-07-29T23:51:06.466Z,19.70
2017-07-29T23:53:34.095Z,19.70
2017-07-29T23:56:01.641Z,19.70
2017-07-29T23:58:29.190Z,19.70
